sensor_id;sensor_type;location;lat;lon;timestamp;P1;durP1;ratioP1;P2;durP2;ratioP2
22713;SDS011;11524;50.846;4.326;2022-08-20T00:00:52;2.00;;;1.10;;
22713;SDS011;11524;50.846;4.326;2022-08-20T00:03:23;1.52;;;1.13;;
22713;SDS011;11524;50.846;4.326;2022-08-20T00:06:10;2.28;;;1.48;;
22713;SDS011;11524;50.846;4.326;2022-08-20T00:08:44;1.57;;;1.00;;
22713;SDS011;11524;50.846;4.326;2022-08-20T00:11:20;4.10;;;1.55;;
22713;SDS011;11524;50.846;4.326;2022-08-20T00:13:50;4.32;;;1.30;;
22713;SDS011;11524;50.846;4.326;2022-08-20T00:16:22;2.72;;;1.33;;
22713;SDS011;11524;50.846;4.326;2022-08-20T00:18:49;2.75;;;1.20;;
22713;SDS011;11524;50.846;4.326;2022-08-20T00:21:15;4.82;;;1.35;;
22713;SDS011;11524;50.846;4.326;2022-08-20T00:23:44;4.78;;;1.63;;
22713;SDS011;11524;50.846;4.326;2022-08-20T00:44:20;2.45;;;1.00;;
22713;SDS011;11524;50.846;4.326;2022-08-20T00:46:47;3.47;;;1.40;;
22713;SDS011;11524;50.846;4.326;2022-08-20T00:49:16;4.47;;;1.50;;
22713;SDS011;11524;50.846;4.326;2022-08-20T00:51:46;5.15;;;1.30;;
22713;SDS011;11524;50.846;4.326;2022-08-20T00:54:17;3.92;;;1.48;;
22713;SDS011;11524;50.846;4.326;2022-08-20T00:56:55;3.97;;;1.42;;
22713;SDS011;11524;50.846;4.326;2022-08-20T00:59:42;5.53;;;2.03;;
22713;SDS011;11524;50.846;4.326;2022-08-20T01:02:09;5.10;;;1.58;;
22713;SDS011;11524;50.846;4.326;2022-08-20T01:04:38;4.95;;;1.80;;
22713;SDS011;11524;50.846;4.326;2022-08-20T01:07:07;2.25;;;1.33;;
22713;SDS011;11524;50.846;4.326;2022-08-20T01:09:34;5.20;;;1.60;;
22713;SDS011;11524;50.846;4.326;2022-08-20T01:12:05;3.72;;;1.40;;
22713;SDS011;11524;50.846;4.326;2022-08-20T01:14:31;6.57;;;1.88;;
22713;SDS011;11524;50.846;4.326;2022-08-20T01:16:58;4.43;;;1.63;;
22713;SDS011;11524;50.846;4.326;2022-08-20T01:19:36;5.57;;;1.70;;
22713;SDS011;11524;50.846;4.326;2022-08-20T01:22:05;2.88;;;1.20;;
22713;SDS011;11524;50.846;4.326;2022-08-20T01:24:53;3.80;;;1.50;;
22713;SDS011;11524;50.846;4.326;2022-08-20T01:27:28;4.47;;;1.50;;
22713;SDS011;11524;50.846;4.326;2022-08-20T01:30:03;5.22;;;1.92;;
22713;SDS011;11524;50.846;4.326;2022-08-20T01:32:29;4.35;;;1.60;;
22713;SDS011;11524;50.846;4.326;2022-08-20T01:34:54;4.50;;;1.35;;
22713;SDS011;11524;50.846;4.326;2022-08-20T01:37:20;3.72;;;1.58;;
22713;SDS011;11524;50.846;4.326;2022-08-20T01:39:47;5.03;;;1.80;;
22713;SDS011;11524;50.846;4.326;2022-08-20T01:42:29;7.00;;;1.80;;
22713;SDS011;11524;50.846;4.326;2022-08-20T01:45:01;5.75;;;1.77;;
22713;SDS011;11524;50.846;4.326;2022-08-20T01:47:30;5.65;;;1.80;;
22713;SDS011;11524;50.846;4.326;2022-08-20T01:49:59;5.65;;;1.55;;
22713;SDS011;11524;50.846;4.326;2022-08-20T01:55:32;6.68;;;1.80;;
22713;SDS011;11524;50.846;4.326;2022-08-20T01:58:18;5.10;;;1.83;;
22713;SDS011;11524;50.846;4.326;2022-08-20T02:00:43;5.28;;;1.58;;
22713;SDS011;11524;50.846;4.326;2022-08-20T02:03:09;6.45;;;1.77;;
22713;SDS011;11524;50.846;4.326;2022-08-20T02:05:35;7.00;;;1.92;;
22713;SDS011;11524;50.846;4.326;2022-08-20T02:08:00;8.15;;;2.15;;
22713;SDS011;11524;50.846;4.326;2022-08-20T02:10:27;6.97;;;1.98;;
22713;SDS011;11524;50.846;4.326;2022-08-20T02:12:53;6.15;;;1.85;;
22713;SDS011;11524;50.846;4.326;2022-08-20T02:15:19;6.10;;;2.00;;
22713;SDS011;11524;50.846;4.326;2022-08-20T02:17:44;5.55;;;1.83;;
22713;SDS011;11524;50.846;4.326;2022-08-20T02:20:12;8.43;;;1.77;;
22713;SDS011;11524;50.846;4.326;2022-08-20T02:22:44;7.05;;;2.20;;
22713;SDS011;11524;50.846;4.326;2022-08-20T02:25:18;5.15;;;2.00;;
22713;SDS011;11524;50.846;4.326;2022-08-20T02:27:46;7.20;;;1.90;;
22713;SDS011;11524;50.846;4.326;2022-08-20T02:30:16;7.63;;;2.25;;
22713;SDS011;11524;50.846;4.326;2022-08-20T02:32:44;8.82;;;2.08;;
22713;SDS011;11524;50.846;4.326;2022-08-20T02:35:10;8.60;;;2.30;;
22713;SDS011;11524;50.846;4.326;2022-08-20T02:40:48;6.75;;;1.98;;
22713;SDS011;11524;50.846;4.326;2022-08-20T02:43:14;7.78;;;2.15;;
22713;SDS011;11524;50.846;4.326;2022-08-20T02:45:42;8.68;;;2.10;;
22713;SDS011;11524;50.846;4.326;2022-08-20T02:48:13;7.07;;;2.28;;
22713;SDS011;11524;50.846;4.326;2022-08-20T02:50:48;6.95;;;1.92;;
22713;SDS011;11524;50.846;4.326;2022-08-20T02:53:16;7.88;;;2.10;;
22713;SDS011;11524;50.846;4.326;2022-08-20T02:55:42;7.32;;;1.92;;
22713;SDS011;11524;50.846;4.326;2022-08-20T02:58:08;9.77;;;2.42;;
22713;SDS011;11524;50.846;4.326;2022-08-20T03:00:34;7.57;;;2.10;;
22713;SDS011;11524;50.846;4.326;2022-08-20T03:03:00;8.77;;;2.70;;
22713;SDS011;11524;50.846;4.326;2022-08-20T03:05:26;7.15;;;2.10;;
22713;SDS011;11524;50.846;4.326;2022-08-20T03:07:52;6.88;;;2.28;;
22713;SDS011;11524;50.846;4.326;2022-08-20T03:10:21;10.82;;;2.30;;
22713;SDS011;11524;50.846;4.326;2022-08-20T03:12:48;5.95;;;2.15;;
22713;SDS011;11524;50.846;4.326;2022-08-20T03:15:14;7.30;;;2.28;;
22713;SDS011;11524;50.846;4.326;2022-08-20T03:17:40;8.88;;;2.50;;
22713;SDS011;11524;50.846;4.326;2022-08-20T03:20:06;11.55;;;2.60;;
22713;SDS011;11524;50.846;4.326;2022-08-20T03:22:32;11.05;;;2.58;;
22713;SDS011;11524;50.846;4.326;2022-08-20T03:24:58;10.85;;;2.90;;
22713;SDS011;11524;50.846;4.326;2022-08-20T03:27:24;8.38;;;2.00;;
22713;SDS011;11524;50.846;4.326;2022-08-20T03:29:49;8.52;;;2.42;;
22713;SDS011;11524;50.846;4.326;2022-08-20T03:32:15;10.25;;;2.40;;
22713;SDS011;11524;50.846;4.326;2022-08-20T03:34:41;12.90;;;2.70;;
22713;SDS011;11524;50.846;4.326;2022-08-20T03:37:07;9.73;;;2.58;;
22713;SDS011;11524;50.846;4.326;2022-08-20T03:39:32;13.13;;;2.67;;
22713;SDS011;11524;50.846;4.326;2022-08-20T03:41:58;10.15;;;2.70;;
22713;SDS011;11524;50.846;4.326;2022-08-20T03:44:31;11.18;;;3.22;;
22713;SDS011;11524;50.846;4.326;2022-08-20T03:47:08;11.27;;;2.45;;
22713;SDS011;11524;50.846;4.326;2022-08-20T03:49:34;11.52;;;2.90;;
22713;SDS011;11524;50.846;4.326;2022-08-20T03:52:00;12.35;;;2.40;;
22713;SDS011;11524;50.846;4.326;2022-08-20T03:54:28;9.55;;;2.65;;
22713;SDS011;11524;50.846;4.326;2022-08-20T03:56:53;7.20;;;2.50;;
22713;SDS011;11524;50.846;4.326;2022-08-20T03:59:20;10.43;;;2.53;;
22713;SDS011;11524;50.846;4.326;2022-08-20T04:01:45;9.02;;;2.65;;
22713;SDS011;11524;50.846;4.326;2022-08-20T04:04:11;10.30;;;2.50;;
22713;SDS011;11524;50.846;4.326;2022-08-20T04:06:37;11.30;;;2.90;;
22713;SDS011;11524;50.846;4.326;2022-08-20T04:09:02;11.30;;;2.70;;
22713;SDS011;11524;50.846;4.326;2022-08-20T04:11:28;12.52;;;3.28;;
22713;SDS011;11524;50.846;4.326;2022-08-20T04:13:59;14.02;;;3.17;;
22713;SDS011;11524;50.846;4.326;2022-08-20T04:16:24;10.55;;;2.80;;
22713;SDS011;11524;50.846;4.326;2022-08-20T04:18:51;8.63;;;2.63;;
22713;SDS011;11524;50.846;4.326;2022-08-20T04:21:17;10.18;;;2.88;;
22713;SDS011;11524;50.846;4.326;2022-08-20T04:23:42;11.27;;;2.92;;
22713;SDS011;11524;50.846;4.326;2022-08-20T04:26:08;15.98;;;2.90;;
22713;SDS011;11524;50.846;4.326;2022-08-20T04:28:33;9.98;;;2.85;;
22713;SDS011;11524;50.846;4.326;2022-08-20T04:30:59;9.20;;;2.40;;
22713;SDS011;11524;50.846;4.326;2022-08-20T04:33:26;9.30;;;2.70;;
22713;SDS011;11524;50.846;4.326;2022-08-20T04:35:55;9.90;;;2.83;;
22713;SDS011;11524;50.846;4.326;2022-08-20T04:38:25;11.05;;;2.90;;
22713;SDS011;11524;50.846;4.326;2022-08-20T04:40:51;12.63;;;3.33;;
22713;SDS011;11524;50.846;4.326;2022-08-20T04:43:17;10.05;;;2.75;;
22713;SDS011;11524;50.846;4.326;2022-08-20T04:45:44;11.55;;;3.35;;
22713;SDS011;11524;50.846;4.326;2022-08-20T04:48:11;9.88;;;2.75;;
22713;SDS011;11524;50.846;4.326;2022-08-20T04:50:38;11.40;;;2.90;;
22713;SDS011;11524;50.846;4.326;2022-08-20T04:53:05;14.18;;;2.92;;
22713;SDS011;11524;50.846;4.326;2022-08-20T04:55:33;12.90;;;2.92;;
22713;SDS011;11524;50.846;4.326;2022-08-20T04:58:06;11.68;;;2.67;;
22713;SDS011;11524;50.846;4.326;2022-08-20T05:00:53;10.48;;;3.00;;
22713;SDS011;11524;50.846;4.326;2022-08-20T05:03:20;11.93;;;3.00;;
22713;SDS011;11524;50.846;4.326;2022-08-20T05:05:47;9.20;;;2.50;;
22713;SDS011;11524;50.846;4.326;2022-08-20T05:08:14;11.43;;;2.92;;
22713;SDS011;11524;50.846;4.326;2022-08-20T05:10:41;12.90;;;3.58;;
22713;SDS011;11524;50.846;4.326;2022-08-20T05:13:08;12.68;;;3.20;;
22713;SDS011;11524;50.846;4.326;2022-08-20T05:15:34;12.63;;;2.83;;
22713;SDS011;11524;50.846;4.326;2022-08-20T05:18:02;11.98;;;3.20;;
22713;SDS011;11524;50.846;4.326;2022-08-20T05:20:30;9.52;;;2.67;;
22713;SDS011;11524;50.846;4.326;2022-08-20T05:23:08;9.00;;;2.83;;
22713;SDS011;11524;50.846;4.326;2022-08-20T05:25:55;13.30;;;3.13;;
22713;SDS011;11524;50.846;4.326;2022-08-20T05:28:26;13.25;;;3.60;;
22713;SDS011;11524;50.846;4.326;2022-08-20T05:30:58;13.45;;;3.58;;
22713;SDS011;11524;50.846;4.326;2022-08-20T05:33:24;11.77;;;3.42;;
22713;SDS011;11524;50.846;4.326;2022-08-20T05:35:51;14.63;;;3.15;;
22713;SDS011;11524;50.846;4.326;2022-08-20T05:38:18;11.18;;;3.33;;
22713;SDS011;11524;50.846;4.326;2022-08-20T05:40:48;14.80;;;3.67;;
22713;SDS011;11524;50.846;4.326;2022-08-20T05:43:14;16.13;;;4.05;;
22713;SDS011;11524;50.846;4.326;2022-08-20T05:45:43;21.52;;;4.00;;
22713;SDS011;11524;50.846;4.326;2022-08-20T05:48:12;12.82;;;3.63;;
22713;SDS011;11524;50.846;4.326;2022-08-20T05:50:47;13.93;;;3.55;;
22713;SDS011;11524;50.846;4.326;2022-08-20T05:55:51;13.95;;;3.40;;
22713;SDS011;11524;50.846;4.326;2022-08-20T05:58:22;13.52;;;3.47;;
22713;SDS011;11524;50.846;4.326;2022-08-20T06:00:59;11.77;;;3.28;;
22713;SDS011;11524;50.846;4.326;2022-08-20T06:06:32;12.02;;;3.80;;
22713;SDS011;11524;50.846;4.326;2022-08-20T06:08:58;14.40;;;3.92;;
22713;SDS011;11524;50.846;4.326;2022-08-20T06:11:24;14.48;;;4.20;;
22713;SDS011;11524;50.846;4.326;2022-08-20T06:13:50;14.07;;;4.05;;
22713;SDS011;11524;50.846;4.326;2022-08-20T06:16:20;15.07;;;3.38;;
22713;SDS011;11524;50.846;4.326;2022-08-20T06:18:45;14.88;;;3.38;;
22713;SDS011;11524;50.846;4.326;2022-08-20T06:21:12;16.17;;;4.07;;
22713;SDS011;11524;50.846;4.326;2022-08-20T06:23:40;14.13;;;3.58;;
22713;SDS011;11524;50.846;4.326;2022-08-20T06:31:17;10.52;;;3.22;;
22713;SDS011;11524;50.846;4.326;2022-08-20T06:33:43;11.60;;;3.38;;
22713;SDS011;11524;50.846;4.326;2022-08-20T06:36:08;15.75;;;3.28;;
22713;SDS011;11524;50.846;4.326;2022-08-20T06:38:34;11.45;;;3.33;;
22713;SDS011;11524;50.846;4.326;2022-08-20T06:40:59;10.55;;;3.03;;
22713;SDS011;11524;50.846;4.326;2022-08-20T06:43:26;12.88;;;3.17;;
22713;SDS011;11524;50.846;4.326;2022-08-20T06:45:52;13.90;;;3.97;;
22713;SDS011;11524;50.846;4.326;2022-08-20T06:48:21;14.65;;;3.60;;
22713;SDS011;11524;50.846;4.326;2022-08-20T06:51:02;11.48;;;3.20;;
22713;SDS011;11524;50.846;4.326;2022-08-20T06:53:30;10.02;;;3.17;;
22713;SDS011;11524;50.846;4.326;2022-08-20T06:55:56;12.23;;;3.22;;
22713;SDS011;11524;50.846;4.326;2022-08-20T06:58:23;10.27;;;3.20;;
22713;SDS011;11524;50.846;4.326;2022-08-20T07:00:49;15.02;;;3.40;;
22713;SDS011;11524;50.846;4.326;2022-08-20T07:03:16;11.20;;;3.40;;
22713;SDS011;11524;50.846;4.326;2022-08-20T07:05:43;8.52;;;3.25;;
22713;SDS011;11524;50.846;4.326;2022-08-20T07:08:09;10.07;;;3.03;;
22713;SDS011;11524;50.846;4.326;2022-08-20T07:10:37;14.73;;;4.05;;
22713;SDS011;11524;50.846;4.326;2022-08-20T07:13:04;12.50;;;3.30;;
22713;SDS011;11524;50.846;4.326;2022-08-20T07:15:30;12.15;;;3.63;;
22713;SDS011;11524;50.846;4.326;2022-08-20T07:17:58;11.38;;;3.20;;
22713;SDS011;11524;50.846;4.326;2022-08-20T07:20:26;13.07;;;3.30;;
22713;SDS011;11524;50.846;4.326;2022-08-20T07:23:09;12.10;;;3.42;;
22713;SDS011;11524;50.846;4.326;2022-08-20T07:25:43;11.77;;;3.67;;
22713;SDS011;11524;50.846;4.326;2022-08-20T07:28:13;12.48;;;3.50;;
22713;SDS011;11524;50.846;4.326;2022-08-20T07:30:42;10.40;;;3.22;;
22713;SDS011;11524;50.846;4.326;2022-08-20T07:33:27;12.65;;;3.63;;
22713;SDS011;11524;50.846;4.326;2022-08-20T07:36:02;13.43;;;3.28;;
22713;SDS011;11524;50.846;4.326;2022-08-20T07:38:28;13.07;;;4.95;;
22713;SDS011;11524;50.846;4.326;2022-08-20T07:40:56;12.07;;;4.10;;
22713;SDS011;11524;50.846;4.326;2022-08-20T07:43:24;14.45;;;4.72;;
22713;SDS011;11524;50.846;4.326;2022-08-20T07:45:52;11.98;;;3.80;;
22713;SDS011;11524;50.846;4.326;2022-08-20T07:48:24;16.40;;;4.15;;
22713;SDS011;11524;50.846;4.326;2022-08-20T07:50:53;14.20;;;3.33;;
22713;SDS011;11524;50.846;4.326;2022-08-20T07:53:20;13.75;;;3.67;;
22713;SDS011;11524;50.846;4.326;2022-08-20T07:55:45;9.63;;;3.63;;
22713;SDS011;11524;50.846;4.326;2022-08-20T07:58:12;13.23;;;3.45;;
22713;SDS011;11524;50.846;4.326;2022-08-20T08:00:41;10.50;;;3.53;;
22713;SDS011;11524;50.846;4.326;2022-08-20T08:03:07;14.10;;;4.07;;
22713;SDS011;11524;50.846;4.326;2022-08-20T08:05:34;12.18;;;3.83;;
22713;SDS011;11524;50.846;4.326;2022-08-20T08:08:02;10.95;;;3.55;;
22713;SDS011;11524;50.846;4.326;2022-08-20T08:10:30;11.07;;;3.47;;
22713;SDS011;11524;50.846;4.326;2022-08-20T08:12:58;12.23;;;3.60;;
22713;SDS011;11524;50.846;4.326;2022-08-20T08:15:29;15.15;;;2.90;;
22713;SDS011;11524;50.846;4.326;2022-08-20T08:18:08;11.02;;;3.90;;
22713;SDS011;11524;50.846;4.326;2022-08-20T08:20:41;12.63;;;4.27;;
22713;SDS011;11524;50.846;4.326;2022-08-20T08:23:09;15.02;;;3.70;;
22713;SDS011;11524;50.846;4.326;2022-08-20T08:25:39;12.13;;;3.33;;
22713;SDS011;11524;50.846;4.326;2022-08-20T08:28:06;14.38;;;5.32;;
22713;SDS011;11524;50.846;4.326;2022-08-20T08:30:35;13.95;;;3.72;;
22713;SDS011;11524;50.846;4.326;2022-08-20T08:33:02;11.38;;;3.05;;
22713;SDS011;11524;50.846;4.326;2022-08-20T08:35:46;8.93;;;3.38;;
22713;SDS011;11524;50.846;4.326;2022-08-20T08:38:12;8.23;;;3.28;;
22713;SDS011;11524;50.846;4.326;2022-08-20T08:40:38;12.52;;;3.08;;
22713;SDS011;11524;50.846;4.326;2022-08-20T08:43:05;11.90;;;3.33;;
22713;SDS011;11524;50.846;4.326;2022-08-20T08:45:37;18.48;;;4.93;;
22713;SDS011;11524;50.846;4.326;2022-08-20T08:48:08;10.88;;;5.03;;
22713;SDS011;11524;50.846;4.326;2022-08-20T08:50:35;14.30;;;5.60;;
22713;SDS011;11524;50.846;4.326;2022-08-20T08:53:02;11.10;;;3.30;;
22713;SDS011;11524;50.846;4.326;2022-08-20T08:55:29;13.57;;;3.35;;
22713;SDS011;11524;50.846;4.326;2022-08-20T08:57:57;10.43;;;3.22;;
22713;SDS011;11524;50.846;4.326;2022-08-20T09:00:25;11.00;;;3.15;;
22713;SDS011;11524;50.846;4.326;2022-08-20T09:02:58;11.98;;;3.45;;
22713;SDS011;11524;50.846;4.326;2022-08-20T09:05:47;13.20;;;2.80;;
22713;SDS011;11524;50.846;4.326;2022-08-20T09:08:16;11.55;;;3.22;;
22713;SDS011;11524;50.846;4.326;2022-08-20T09:10:47;16.73;;;3.20;;
22713;SDS011;11524;50.846;4.326;2022-08-20T09:13:13;12.82;;;3.03;;
22713;SDS011;11524;50.846;4.326;2022-08-20T09:15:38;10.30;;;3.03;;
22713;SDS011;11524;50.846;4.326;2022-08-20T09:18:04;11.20;;;2.53;;
22713;SDS011;11524;50.846;4.326;2022-08-20T09:20:30;9.18;;;2.92;;
22713;SDS011;11524;50.846;4.326;2022-08-20T09:22:56;9.10;;;2.65;;
22713;SDS011;11524;50.846;4.326;2022-08-20T09:25:21;11.68;;;3.33;;
22713;SDS011;11524;50.846;4.326;2022-08-20T09:27:47;10.13;;;2.60;;
22713;SDS011;11524;50.846;4.326;2022-08-20T09:30:13;12.40;;;2.83;;
22713;SDS011;11524;50.846;4.326;2022-08-20T09:32:40;10.68;;;2.50;;
22713;SDS011;11524;50.846;4.326;2022-08-20T09:35:05;9.82;;;2.58;;
22713;SDS011;11524;50.846;4.326;2022-08-20T09:37:31;10.40;;;2.65;;
22713;SDS011;11524;50.846;4.326;2022-08-20T09:39:57;13.30;;;2.95;;
22713;SDS011;11524;50.846;4.326;2022-08-20T09:42:28;12.00;;;2.50;;
22713;SDS011;11524;50.846;4.326;2022-08-20T09:44:55;9.40;;;2.60;;
22713;SDS011;11524;50.846;4.326;2022-08-20T09:47:23;9.13;;;2.45;;
22713;SDS011;11524;50.846;4.326;2022-08-20T09:49:49;9.63;;;2.10;;
22713;SDS011;11524;50.846;4.326;2022-08-20T09:52:40;13.43;;;2.67;;
22713;SDS011;11524;50.846;4.326;2022-08-20T09:55:14;11.20;;;2.10;;
22713;SDS011;11524;50.846;4.326;2022-08-20T09:57:46;18.35;;;2.58;;
22713;SDS011;11524;50.846;4.326;2022-08-20T10:00:12;9.88;;;2.20;;
22713;SDS011;11524;50.846;4.326;2022-08-20T10:02:39;10.73;;;2.22;;
22713;SDS011;11524;50.846;4.326;2022-08-20T10:05:06;8.48;;;2.58;;
22713;SDS011;11524;50.846;4.326;2022-08-20T10:07:33;9.20;;;2.47;;
22713;SDS011;11524;50.846;4.326;2022-08-20T10:09:59;9.68;;;2.25;;
22713;SDS011;11524;50.846;4.326;2022-08-20T10:12:25;8.57;;;2.40;;
22713;SDS011;11524;50.846;4.326;2022-08-20T10:14:51;10.88;;;2.75;;
22713;SDS011;11524;50.846;4.326;2022-08-20T10:17:16;20.13;;;2.97;;
22713;SDS011;11524;50.846;4.326;2022-08-20T10:19:42;16.00;;;2.47;;
22713;SDS011;11524;50.846;4.326;2022-08-20T10:22:08;10.10;;;2.42;;
22713;SDS011;11524;50.846;4.326;2022-08-20T10:24:33;9.73;;;2.53;;
22713;SDS011;11524;50.846;4.326;2022-08-20T10:26:59;9.18;;;2.47;;
22713;SDS011;11524;50.846;4.326;2022-08-20T10:29:26;9.27;;;2.95;;
22713;SDS011;11524;50.846;4.326;2022-08-20T10:31:53;8.77;;;2.47;;
22713;SDS011;11524;50.846;4.326;2022-08-20T10:34:21;8.80;;;2.55;;
22713;SDS011;11524;50.846;4.326;2022-08-20T10:36:47;9.23;;;2.50;;
22713;SDS011;11524;50.846;4.326;2022-08-20T10:39:13;8.18;;;2.70;;
22713;SDS011;11524;50.846;4.326;2022-08-20T10:41:39;9.27;;;2.20;;
22713;SDS011;11524;50.846;4.326;2022-08-20T10:44:05;9.20;;;2.30;;
22713;SDS011;11524;50.846;4.326;2022-08-20T10:46:31;9.00;;;2.90;;
22713;SDS011;11524;50.846;4.326;2022-08-20T10:48:57;8.80;;;2.55;;
22713;SDS011;11524;50.846;4.326;2022-08-20T10:51:23;6.80;;;2.67;;
22713;SDS011;11524;50.846;4.326;2022-08-20T10:53:48;7.93;;;2.47;;
22713;SDS011;11524;50.846;4.326;2022-08-20T10:56:14;9.38;;;2.90;;
22713;SDS011;11524;50.846;4.326;2022-08-20T10:58:39;13.07;;;3.40;;
22713;SDS011;11524;50.846;4.326;2022-08-20T11:01:05;10.85;;;2.80;;
22713;SDS011;11524;50.846;4.326;2022-08-20T11:03:31;11.68;;;2.85;;
22713;SDS011;11524;50.846;4.326;2022-08-20T11:05:57;9.38;;;2.95;;
22713;SDS011;11524;50.846;4.326;2022-08-20T11:08:23;12.20;;;3.15;;
22713;SDS011;11524;50.846;4.326;2022-08-20T11:10:48;9.85;;;2.47;;
22713;SDS011;11524;50.846;4.326;2022-08-20T11:13:14;8.05;;;2.45;;
22713;SDS011;11524;50.846;4.326;2022-08-20T11:15:40;7.82;;;2.97;;
22713;SDS011;11524;50.846;4.326;2022-08-20T11:18:07;10.52;;;2.67;;
22713;SDS011;11524;50.846;4.326;2022-08-20T11:20:34;8.07;;;2.58;;
22713;SDS011;11524;50.846;4.326;2022-08-20T11:23:00;9.25;;;2.97;;
22713;SDS011;11524;50.846;4.326;2022-08-20T11:25:26;8.85;;;2.70;;
22713;SDS011;11524;50.846;4.326;2022-08-20T11:27:52;8.27;;;2.60;;
22713;SDS011;11524;50.846;4.326;2022-08-20T11:30:21;8.05;;;2.90;;
22713;SDS011;11524;50.846;4.326;2022-08-20T11:32:54;8.02;;;2.90;;
22713;SDS011;11524;50.846;4.326;2022-08-20T11:35:20;9.18;;;2.60;;
22713;SDS011;11524;50.846;4.326;2022-08-20T11:37:48;8.90;;;2.92;;
22713;SDS011;11524;50.846;4.326;2022-08-20T11:40:15;10.25;;;3.03;;
22713;SDS011;11524;50.846;4.326;2022-08-20T11:42:41;8.73;;;2.40;;
22713;SDS011;11524;50.846;4.326;2022-08-20T11:45:07;6.68;;;2.25;;
22713;SDS011;11524;50.846;4.326;2022-08-20T11:47:33;8.07;;;2.55;;
22713;SDS011;11524;50.846;4.326;2022-08-20T11:50:01;12.95;;;2.95;;
22713;SDS011;11524;50.846;4.326;2022-08-20T11:52:32;9.90;;;2.53;;
22713;SDS011;11524;50.846;4.326;2022-08-20T11:54:58;7.60;;;2.40;;
22713;SDS011;11524;50.846;4.326;2022-08-20T11:57:25;8.90;;;3.00;;
22713;SDS011;11524;50.846;4.326;2022-08-20T11:59:53;7.40;;;2.40;;
22713;SDS011;11524;50.846;4.326;2022-08-20T12:02:20;8.90;;;2.33;;
22713;SDS011;11524;50.846;4.326;2022-08-20T12:04:46;7.93;;;2.40;;
22713;SDS011;11524;50.846;4.326;2022-08-20T12:07:14;8.82;;;2.70;;
22713;SDS011;11524;50.846;4.326;2022-08-20T12:09:41;8.00;;;2.20;;
22713;SDS011;11524;50.846;4.326;2022-08-20T12:12:07;6.00;;;2.10;;
22713;SDS011;11524;50.846;4.326;2022-08-20T12:14:33;9.13;;;2.42;;
22713;SDS011;11524;50.846;4.326;2022-08-20T12:17:09;5.95;;;2.03;;
22713;SDS011;11524;50.846;4.326;2022-08-20T12:19:41;11.40;;;2.70;;
22713;SDS011;11524;50.846;4.326;2022-08-20T12:22:07;6.28;;;2.15;;
22713;SDS011;11524;50.846;4.326;2022-08-20T12:24:34;6.85;;;2.08;;
22713;SDS011;11524;50.846;4.326;2022-08-20T12:27:10;6.38;;;1.95;;
22713;SDS011;11524;50.846;4.326;2022-08-20T12:29:38;7.72;;;1.88;;
22713;SDS011;11524;50.846;4.326;2022-08-20T12:32:04;7.88;;;2.83;;
22713;SDS011;11524;50.846;4.326;2022-08-20T12:34:34;7.80;;;2.10;;
22713;SDS011;11524;50.846;4.326;2022-08-20T12:37:03;6.80;;;2.03;;
22713;SDS011;11524;50.846;4.326;2022-08-20T12:39:32;5.57;;;1.98;;
22713;SDS011;11524;50.846;4.326;2022-08-20T12:42:01;5.75;;;1.77;;
22713;SDS011;11524;50.846;4.326;2022-08-20T12:44:28;6.28;;;1.85;;
22713;SDS011;11524;50.846;4.326;2022-08-20T12:49:45;6.40;;;2.10;;
22713;SDS011;11524;50.846;4.326;2022-08-20T12:52:13;6.20;;;1.88;;
22713;SDS011;11524;50.846;4.326;2022-08-20T12:54:39;3.33;;;1.75;;
22713;SDS011;11524;50.846;4.326;2022-08-20T12:57:06;6.72;;;1.65;;
22713;SDS011;11524;50.846;4.326;2022-08-20T12:59:37;5.85;;;1.70;;
22713;SDS011;11524;50.846;4.326;2022-08-20T13:02:02;5.07;;;1.90;;
22713;SDS011;11524;50.846;4.326;2022-08-20T13:04:28;7.38;;;1.95;;
22713;SDS011;11524;50.846;4.326;2022-08-20T13:06:58;6.65;;;1.92;;
22713;SDS011;11524;50.846;4.326;2022-08-20T13:09:25;5.93;;;2.00;;
22713;SDS011;11524;50.846;4.326;2022-08-20T13:11:51;4.60;;;1.92;;
22713;SDS011;11524;50.846;4.326;2022-08-20T13:14:17;5.60;;;1.73;;
22713;SDS011;11524;50.846;4.326;2022-08-20T13:16:42;5.50;;;1.80;;
22713;SDS011;11524;50.846;4.326;2022-08-20T13:19:08;6.60;;;1.83;;
22713;SDS011;11524;50.846;4.326;2022-08-20T13:21:34;4.50;;;1.55;;
22713;SDS011;11524;50.846;4.326;2022-08-20T13:24:00;5.03;;;1.95;;
22713;SDS011;11524;50.846;4.326;2022-08-20T13:26:26;4.53;;;1.42;;
22713;SDS011;11524;50.846;4.326;2022-08-20T13:28:52;4.55;;;1.60;;
22713;SDS011;11524;50.846;4.326;2022-08-20T13:31:18;6.07;;;1.80;;
22713;SDS011;11524;50.846;4.326;2022-08-20T13:33:43;4.75;;;1.98;;
22713;SDS011;11524;50.846;4.326;2022-08-20T13:36:09;7.60;;;1.90;;
22713;SDS011;11524;50.846;4.326;2022-08-20T13:38:35;4.97;;;1.85;;
22713;SDS011;11524;50.846;4.326;2022-08-20T13:41:00;5.68;;;2.13;;
22713;SDS011;11524;50.846;4.326;2022-08-20T13:43:26;5.75;;;1.70;;
22713;SDS011;11524;50.846;4.326;2022-08-20T13:45:51;6.03;;;1.98;;
22713;SDS011;11524;50.846;4.326;2022-08-20T13:48:17;4.93;;;1.83;;
22713;SDS011;11524;50.846;4.326;2022-08-20T13:50:43;6.57;;;2.10;;
22713;SDS011;11524;50.846;4.326;2022-08-20T13:53:08;10.02;;;2.20;;
22713;SDS011;11524;50.846;4.326;2022-08-20T13:55:34;4.38;;;1.70;;
22713;SDS011;11524;50.846;4.326;2022-08-20T13:58:03;6.68;;;2.03;;
22713;SDS011;11524;50.846;4.326;2022-08-20T14:00:30;4.97;;;1.83;;
22713;SDS011;11524;50.846;4.326;2022-08-20T14:03:01;6.18;;;1.77;;
22713;SDS011;11524;50.846;4.326;2022-08-20T14:05:29;5.68;;;1.90;;
22713;SDS011;11524;50.846;4.326;2022-08-20T14:08:03;4.75;;;1.65;;
22713;SDS011;11524;50.846;4.326;2022-08-20T14:10:33;4.57;;;1.83;;
22713;SDS011;11524;50.846;4.326;2022-08-20T14:12:59;7.90;;;1.67;;
22713;SDS011;11524;50.846;4.326;2022-08-20T14:15:27;7.80;;;1.98;;
22713;SDS011;11524;50.846;4.326;2022-08-20T14:17:54;9.02;;;2.10;;
22713;SDS011;11524;50.846;4.326;2022-08-20T14:20:22;4.45;;;1.70;;
22713;SDS011;11524;50.846;4.326;2022-08-20T14:22:50;5.05;;;1.58;;
22713;SDS011;11524;50.846;4.326;2022-08-20T14:25:17;6.72;;;2.08;;
22713;SDS011;11524;50.846;4.326;2022-08-20T14:27:43;6.65;;;2.08;;
22713;SDS011;11524;50.846;4.326;2022-08-20T14:30:10;7.03;;;1.88;;
22713;SDS011;11524;50.846;4.326;2022-08-20T14:32:38;9.32;;;2.30;;
22713;SDS011;11524;50.846;4.326;2022-08-20T14:35:05;6.15;;;1.95;;
22713;SDS011;11524;50.846;4.326;2022-08-20T14:37:33;5.35;;;1.60;;
22713;SDS011;11524;50.846;4.326;2022-08-20T14:40:02;7.25;;;1.92;;
22713;SDS011;11524;50.846;4.326;2022-08-20T14:42:31;9.07;;;2.03;;
22713;SDS011;11524;50.846;4.326;2022-08-20T14:44:57;5.82;;;2.40;;
22713;SDS011;11524;50.846;4.326;2022-08-20T14:47:28;5.47;;;2.00;;
22713;SDS011;11524;50.846;4.326;2022-08-20T14:49:55;5.82;;;2.00;;
22713;SDS011;11524;50.846;4.326;2022-08-20T14:52:25;7.15;;;1.77;;
22713;SDS011;11524;50.846;4.326;2022-08-20T14:54:51;11.32;;;1.80;;
22713;SDS011;11524;50.846;4.326;2022-08-20T14:57:17;8.60;;;2.03;;
22713;SDS011;11524;50.846;4.326;2022-08-20T14:59:44;9.25;;;2.20;;
22713;SDS011;11524;50.846;4.326;2022-08-20T15:02:11;11.45;;;2.17;;
22713;SDS011;11524;50.846;4.326;2022-08-20T15:04:38;9.20;;;2.13;;
22713;SDS011;11524;50.846;4.326;2022-08-20T15:07:05;6.93;;;2.10;;
22713;SDS011;11524;50.846;4.326;2022-08-20T15:09:37;9.82;;;2.15;;
22713;SDS011;11524;50.846;4.326;2022-08-20T15:12:03;6.22;;;2.10;;
22713;SDS011;11524;50.846;4.326;2022-08-20T15:14:31;8.13;;;1.83;;
22713;SDS011;11524;50.846;4.326;2022-08-20T15:16:56;6.25;;;2.25;;
22713;SDS011;11524;50.846;4.326;2022-08-20T15:19:22;6.15;;;2.35;;
22713;SDS011;11524;50.846;4.326;2022-08-20T15:21:48;5.60;;;2.17;;
22713;SDS011;11524;50.846;4.326;2022-08-20T15:24:14;6.78;;;1.80;;
22713;SDS011;11524;50.846;4.326;2022-08-20T15:26:40;5.53;;;1.90;;